Northdale, Florida
Current Conditions -  °F | °C
As of 1:53 AM on Friday 31 Oct 2014 (Local Time) from KTPA Reporting Station
Overcast Overcast  
Wind Chill: 71°   Ceiling: 6000
Heat Index: 71°   Visibility: 9mi
Dew Point: 67°   Wind: 6mph
Humidity: 87%   Direction: 340°NNW
Pressure: 29.88"   Gusts: NA
Location:  28.0595°N, 82.6106°W
Report Text: KTPA 310553Z 34005KT 9SM FEW038 BKN060 OVC075 22/19 A2988 RMK AO2 SLP119 T02170194 10244 20217 58009
Loading
Personal Weather Stations






























Interactive Weather Map
Tropical Storm Tracking
New forecast layout! Learn more

10-Day Weather Forecast

Advertisements
Track Severe Weather on mobile